sensor_id;sensor_type;location;lat;lon;timestamp;pressure;altitude;pressure_sealevel;temperature;humidity
20003;BME280;10162;41.600;23.806;2022-07-23T00:02:06;95447.84;;;18.44;90.25
20003;BME280;10162;41.600;23.806;2022-07-23T00:04:45;95435.22;;;18.23;91.38
20003;BME280;10162;41.600;23.806;2022-07-23T00:07:10;95454.13;;;18.15;92.10
20003;BME280;10162;41.600;23.806;2022-07-23T00:09:36;95467.81;;;18.52;91.03
20003;BME280;10162;41.600;23.806;2022-07-23T00:12:02;95459.78;;;18.47;90.11
20003;BME280;10162;41.600;23.806;2022-07-23T00:17:32;95468.22;;;18.32;93.30
20003;BME280;10162;41.600;23.806;2022-07-23T00:19:58;95464.34;;;18.11;94.17
20003;BME280;10162;41.600;23.806;2022-07-23T00:22:24;95457.72;;;17.97;96.52
20003;BME280;10162;41.600;23.806;2022-07-23T00:24:50;95465.88;;;18.07;95.93
20003;BME280;10162;41.600;23.806;2022-07-23T00:27:15;95459.78;;;17.72;97.49
20003;BME280;10162;41.600;23.806;2022-07-23T00:29:41;95459.09;;;17.42;100.00
20003;BME280;10162;41.600;23.806;2022-07-23T00:32:07;95462.44;;;17.72;100.00
20003;BME280;10162;41.600;23.806;2022-07-23T00:34:42;95446.56;;;17.72;100.00
20003;BME280;10162;41.600;23.806;2022-07-23T00:37:08;95444.19;;;17.82;98.52
20003;BME280;10162;41.600;23.806;2022-07-23T00:39:33;95441.38;;;17.89;97.18
20003;BME280;10162;41.600;23.806;2022-07-23T00:41:59;95456.94;;;17.62;100.00
20003;BME280;10162;41.600;23.806;2022-07-23T00:47:28;95453.25;;;17.63;100.00
20003;BME280;10162;41.600;23.806;2022-07-23T00:49:54;95456.00;;;17.68;100.00
20003;BME280;10162;41.600;23.806;2022-07-23T00:52:20;95468.09;;;17.75;98.93
20003;BME280;10162;41.600;23.806;2022-07-23T00:55:03;95455.84;;;17.40;100.00
20003;BME280;10162;41.600;23.806;2022-07-23T00:57:28;95450.47;;;17.58;99.05
20003;BME280;10162;41.600;23.806;2022-07-23T00:59:54;95450.47;;;17.58;99.02
20003;BME280;10162;41.600;23.806;2022-07-23T01:02:20;95450.31;;;17.18;100.00
20003;BME280;10162;41.600;23.806;2022-07-23T01:08:06;95454.22;;;17.27;100.00
20003;BME280;10162;41.600;23.806;2022-07-23T01:10:32;95459.28;;;17.17;100.00
20003;BME280;10162;41.600;23.806;2022-07-23T01:13:31;95475.84;;;17.24;100.00
20003;BME280;10162;41.600;23.806;2022-07-23T01:15:57;95467.53;;;17.20;100.00
20003;BME280;10162;41.600;23.806;2022-07-23T01:18:22;95465.72;;;17.32;100.00
20003;BME280;10162;41.600;23.806;2022-07-23T01:20:48;95462.69;;;17.06;100.00
20003;BME280;10162;41.600;23.806;2022-07-23T01:26:09;95458.59;;;17.33;100.00
20003;BME280;10162;41.600;23.806;2022-07-23T01:28:36;95466.25;;;17.00;100.00
20003;BME280;10162;41.600;23.806;2022-07-23T01:31:01;95473.09;;;17.30;100.00
20003;BME280;10162;41.600;23.806;2022-07-23T01:33:32;95467.97;;;17.06;100.00
20003;BME280;10162;41.600;23.806;2022-07-23T01:35:57;95449.03;;;17.09;100.00
20003;BME280;10162;41.600;23.806;2022-07-23T01:38:24;95446.59;;;16.96;100.00
20003;BME280;10162;41.600;23.806;2022-07-23T01:40:50;95468.09;;;17.11;100.00
20003;BME280;10162;41.600;23.806;2022-07-23T01:47:03;95449.03;;;17.20;100.00
20003;BME280;10162;41.600;23.806;2022-07-23T01:49:29;95452.72;;;17.08;100.00
20003;BME280;10162;41.600;23.806;2022-07-23T01:51:58;95456.41;;;17.18;100.00
20003;BME280;10162;41.600;23.806;2022-07-23T01:54:52;95460.53;;;17.03;100.00
20003;BME280;10162;41.600;23.806;2022-07-23T01:57:18;95455.47;;;17.13;100.00
20003;BME280;10162;41.600;23.806;2022-07-23T01:59:44;95460.75;;;17.01;100.00
20003;BME280;10162;41.600;23.806;2022-07-23T02:02:10;95455.09;;;16.98;100.00
20003;BME280;10162;41.600;23.806;2022-07-23T02:04:48;95466.44;;;16.86;100.00
20003;BME280;10162;41.600;23.806;2022-07-23T02:07:16;95470.88;;;17.16;100.00
20003;BME280;10162;41.600;23.806;2022-07-23T02:09:42;95470.03;;;17.04;100.00
20003;BME280;10162;41.600;23.806;2022-07-23T02:12:08;95482.06;;;16.88;100.00
20003;BME280;10162;41.600;23.806;2022-07-23T02:17:45;95471.66;;;17.05;100.00
20003;BME280;10162;41.600;23.806;2022-07-23T02:20:11;95478.69;;;16.81;100.00
20003;BME280;10162;41.600;23.806;2022-07-23T02:22:40;95474.94;;;16.88;100.00
20003;BME280;10162;41.600;23.806;2022-07-23T02:25:08;95470.72;;;16.21;100.00
20003;BME280;10162;41.600;23.806;2022-07-23T02:27:35;95483.38;;;16.49;100.00
20003;BME280;10162;41.600;23.806;2022-07-23T02:30:04;95474.44;;;16.50;100.00
20003;BME280;10162;41.600;23.806;2022-07-23T02:35:52;95472.53;;;16.39;100.00
20003;BME280;10162;41.600;23.806;2022-07-23T02:38:19;95470.34;;;16.18;100.00
20003;BME280;10162;41.600;23.806;2022-07-23T02:40:45;95481.75;;;16.48;100.00
20003;BME280;10162;41.600;23.806;2022-07-23T02:43:37;95496.38;;;16.80;100.00
20003;BME280;10162;41.600;23.806;2022-07-23T02:46:02;95488.59;;;16.37;100.00
20003;BME280;10162;41.600;23.806;2022-07-23T02:48:29;95485.19;;;16.48;100.00
20003;BME280;10162;41.600;23.806;2022-07-23T02:50:55;95491.81;;;16.03;100.00
20003;BME280;10162;41.600;23.806;2022-07-23T02:53:30;95482.66;;;16.24;100.00
20003;BME280;10162;41.600;23.806;2022-07-23T02:55:56;95496.22;;;16.09;100.00
20003;BME280;10162;41.600;23.806;2022-07-23T02:58:21;95487.94;;;16.05;100.00
20003;BME280;10162;41.600;23.806;2022-07-23T03:00:47;95509.91;;;16.18;100.00
20003;BME280;10162;41.600;23.806;2022-07-23T03:03:20;95487.47;;;16.45;100.00
20003;BME280;10162;41.600;23.806;2022-07-23T03:05:46;95492.75;;;16.45;100.00
20003;BME280;10162;41.600;23.806;2022-07-23T03:08:12;95500.16;;;16.36;100.00
20003;BME280;10162;41.600;23.806;2022-07-23T03:10:41;95501.28;;;16.10;100.00
20003;BME280;10162;41.600;23.806;2022-07-23T03:13:08;95511.53;;;16.19;100.00
20003;BME280;10162;41.600;23.806;2022-07-23T03:15:52;95502.97;;;16.05;100.00
20003;BME280;10162;41.600;23.806;2022-07-23T03:18:18;95497.84;;;16.10;100.00
20003;BME280;10162;41.600;23.806;2022-07-23T03:20:43;95504.78;;;16.04;100.00
20003;BME280;10162;41.600;23.806;2022-07-23T03:26:18;95507.69;;;15.96;100.00
20003;BME280;10162;41.600;23.806;2022-07-23T03:28:44;95500.50;;;15.85;100.00
20003;BME280;10162;41.600;23.806;2022-07-23T03:31:10;95522.09;;;16.00;100.00
20003;BME280;10162;41.600;23.806;2022-07-23T03:36:45;95515.19;;;16.18;100.00
20003;BME280;10162;41.600;23.806;2022-07-23T03:39:11;95510.22;;;16.09;100.00
20003;BME280;10162;41.600;23.806;2022-07-23T03:41:38;95512.19;;;16.14;100.00
20003;BME280;10162;41.600;23.806;2022-07-23T03:47:08;95528.31;;;16.24;100.00
20003;BME280;10162;41.600;23.806;2022-07-23T03:49:34;95518.41;;;16.38;100.00
20003;BME280;10162;41.600;23.806;2022-07-23T03:52:00;95525.75;;;16.36;100.00
20003;BME280;10162;41.600;23.806;2022-07-23T03:57:26;95519.84;;;16.52;100.00
20003;BME280;10162;41.600;23.806;2022-07-23T03:59:52;95530.66;;;16.69;100.00
20003;BME280;10162;41.600;23.806;2022-07-23T04:02:18;95532.22;;;16.88;100.00
20003;BME280;10162;41.600;23.806;2022-07-23T04:05:17;95542.25;;;16.68;100.00
20003;BME280;10162;41.600;23.806;2022-07-23T04:07:46;95523.84;;;16.79;100.00
20003;BME280;10162;41.600;23.806;2022-07-23T04:10:12;95534.72;;;17.01;100.00
20003;BME280;10162;41.600;23.806;2022-07-23T04:12:56;95544.13;;;17.09;100.00
20003;BME280;10162;41.600;23.806;2022-07-23T04:15:22;95545.25;;;17.31;100.00
20003;BME280;10162;41.600;23.806;2022-07-23T04:17:48;95539.38;;;17.29;100.00
20003;BME280;10162;41.600;23.806;2022-07-23T04:20:16;95546.13;;;17.66;100.00
20003;BME280;10162;41.600;23.806;2022-07-23T04:23:08;95550.97;;;17.69;100.00
20003;BME280;10162;41.600;23.806;2022-07-23T04:25:36;95557.22;;;17.98;99.83
20003;BME280;10162;41.600;23.806;2022-07-23T04:28:02;95548.25;;;18.11;98.22
20003;BME280;10162;41.600;23.806;2022-07-23T04:30:28;95537.50;;;18.17;97.93
20003;BME280;10162;41.600;23.806;2022-07-23T04:32:54;95533.84;;;18.18;97.86
20003;BME280;10162;41.600;23.806;2022-07-23T04:35:23;95547.06;;;18.07;100.00
20003;BME280;10162;41.600;23.806;2022-07-23T04:37:52;95532.56;;;18.56;96.72
20003;BME280;10162;41.600;23.806;2022-07-23T04:40:18;95537.53;;;18.81;95.95
20003;BME280;10162;41.600;23.806;2022-07-23T04:43:02;95538.16;;;18.99;94.83
20003;BME280;10162;41.600;23.806;2022-07-23T04:45:27;95542.31;;;19.24;92.89
20003;BME280;10162;41.600;23.806;2022-07-23T04:47:53;95529.34;;;19.11;90.48
20003;BME280;10162;41.600;23.806;2022-07-23T04:50:19;95552.72;;;19.42;88.81
20003;BME280;10162;41.600;23.806;2022-07-23T04:52:51;95544.06;;;19.47;88.29
20003;BME280;10162;41.600;23.806;2022-07-23T04:55:17;95549.16;;;19.65;86.82
20003;BME280;10162;41.600;23.806;2022-07-23T04:57:42;95543.75;;;19.76;86.02
20003;BME280;10162;41.600;23.806;2022-07-23T05:00:09;95544.72;;;20.04;84.83
20003;BME280;10162;41.600;23.806;2022-07-23T05:05:32;95549.06;;;19.93;84.69
20003;BME280;10162;41.600;23.806;2022-07-23T05:08:06;95543.81;;;20.15;84.48
20003;BME280;10162;41.600;23.806;2022-07-23T05:10:32;95550.28;;;20.41;84.26
20003;BME280;10162;41.600;23.806;2022-07-23T05:13:30;95558.91;;;20.70;82.48
20003;BME280;10162;41.600;23.806;2022-07-23T05:15:56;95551.16;;;20.68;81.88
20003;BME280;10162;41.600;23.806;2022-07-23T05:18:23;95545.63;;;20.70;82.06
20003;BME280;10162;41.600;23.806;2022-07-23T05:20:49;95539.88;;;20.78;80.88
20003;BME280;10162;41.600;23.806;2022-07-23T05:23:18;95541.00;;;21.09;78.52
20003;BME280;10162;41.600;23.806;2022-07-23T05:25:44;95537.69;;;20.96;78.96
20003;BME280;10162;41.600;23.806;2022-07-23T05:28:10;95541.75;;;21.04;81.27
20003;BME280;10162;41.600;23.806;2022-07-23T05:30:37;95547.94;;;21.10;81.26
20003;BME280;10162;41.600;23.806;2022-07-23T05:33:09;95549.97;;;21.02;83.12
20003;BME280;10162;41.600;23.806;2022-07-23T05:35:35;95547.84;;;20.78;83.11
20003;BME280;10162;41.600;23.806;2022-07-23T05:38:25;95551.53;;;21.20;80.23
20003;BME280;10162;41.600;23.806;2022-07-23T05:40:53;95561.06;;;21.43;79.87
20003;BME280;10162;41.600;23.806;2022-07-23T05:43:34;95559.16;;;21.97;77.42
20003;BME280;10162;41.600;23.806;2022-07-23T05:46:06;95548.88;;;21.47;80.81
20003;BME280;10162;41.600;23.806;2022-07-23T05:48:35;95561.09;;;21.75;80.10
20003;BME280;10162;41.600;23.806;2022-07-23T05:51:06;95545.75;;;21.55;81.51
20003;BME280;10162;41.600;23.806;2022-07-23T05:53:38;95554.81;;;21.86;79.89
20003;BME280;10162;41.600;23.806;2022-07-23T05:56:17;95567.50;;;21.79;79.77
20003;BME280;10162;41.600;23.806;2022-07-23T05:58:43;95563.25;;;21.78;80.17
20003;BME280;10162;41.600;23.806;2022-07-23T06:01:09;95554.09;;;21.96;78.58
20003;BME280;10162;41.600;23.806;2022-07-23T06:03:48;95566.41;;;22.07;77.73
20003;BME280;10162;41.600;23.806;2022-07-23T06:06:14;95577.25;;;22.32;76.57
20003;BME280;10162;41.600;23.806;2022-07-23T06:08:40;95557.72;;;22.68;73.59
20003;BME280;10162;41.600;23.806;2022-07-23T06:11:07;95562.56;;;22.72;73.79
20003;BME280;10162;41.600;23.806;2022-07-23T06:13:33;95554.31;;;22.73;72.81
20003;BME280;10162;41.600;23.806;2022-07-23T06:15:59;95572.16;;;22.73;72.70
20003;BME280;10162;41.600;23.806;2022-07-23T06:18:25;95569.81;;;22.86;72.78
20003;BME280;10162;41.600;23.806;2022-07-23T06:20:52;95568.53;;;22.94;71.63
20003;BME280;10162;41.600;23.806;2022-07-23T06:23:53;95574.00;;;23.44;68.59
20003;BME280;10162;41.600;23.806;2022-07-23T06:26:19;95567.66;;;23.51;68.34
20003;BME280;10162;41.600;23.806;2022-07-23T06:28:45;95567.66;;;23.81;67.56
20003;BME280;10162;41.600;23.806;2022-07-23T06:31:11;95548.72;;;23.62;66.34
20003;BME280;10162;41.600;23.806;2022-07-23T06:33:54;95557.25;;;23.89;65.90
20003;BME280;10162;41.600;23.806;2022-07-23T06:36:20;95541.78;;;23.97;65.65
20003;BME280;10162;41.600;23.806;2022-07-23T06:38:46;95548.16;;;23.75;65.59
20003;BME280;10162;41.600;23.806;2022-07-23T06:41:11;95550.81;;;24.11;64.14
20003;BME280;10162;41.600;23.806;2022-07-23T06:43:41;95563.88;;;24.53;62.54
20003;BME280;10162;41.600;23.806;2022-07-23T06:46:08;95537.47;;;24.31;62.38
20003;BME280;10162;41.600;23.806;2022-07-23T06:48:33;95553.16;;;24.58;61.90
20003;BME280;10162;41.600;23.806;2022-07-23T06:51:02;95544.25;;;24.78;60.34
20003;BME280;10162;41.600;23.806;2022-07-23T06:53:32;95535.44;;;24.82;60.57
20003;BME280;10162;41.600;23.806;2022-07-23T06:55:57;95534.06;;;24.95;60.56
20003;BME280;10162;41.600;23.806;2022-07-23T06:58:23;95532.38;;;25.14;59.42
20003;BME280;10162;41.600;23.806;2022-07-23T07:00:49;95533.97;;;25.59;57.56
20003;BME280;10162;41.600;23.806;2022-07-23T07:03:21;95529.84;;;25.33;57.07
20003;BME280;10162;41.600;23.806;2022-07-23T07:05:46;95517.28;;;25.33;57.25
20003;BME280;10162;41.600;23.806;2022-07-23T07:08:12;95527.72;;;25.74;55.38
20003;BME280;10162;41.600;23.806;2022-07-23T07:10:38;95523.19;;;25.69;54.98
20003;BME280;10162;41.600;23.806;2022-07-23T07:16:15;95526.75;;;25.93;53.03
20003;BME280;10162;41.600;23.806;2022-07-23T07:18:41;95526.53;;;25.46;48.99
20003;BME280;10162;41.600;23.806;2022-07-23T07:21:06;95511.94;;;26.01;50.71
20003;BME280;10162;41.600;23.806;2022-07-23T07:26:51;95526.34;;;26.39;48.67
20003;BME280;10162;41.600;23.806;2022-07-23T07:29:16;95519.50;;;26.52;47.21
20003;BME280;10162;41.600;23.806;2022-07-23T07:31:42;95521.31;;;26.32;48.48
20003;BME280;10162;41.600;23.806;2022-07-23T07:34:40;95530.91;;;27.10;48.28
20003;BME280;10162;41.600;23.806;2022-07-23T07:37:06;95509.13;;;26.93;47.98
20003;BME280;10162;41.600;23.806;2022-07-23T07:39:31;95518.34;;;26.82;47.06
20003;BME280;10162;41.600;23.806;2022-07-23T07:41:57;95509.22;;;26.83;47.04
20003;BME280;10162;41.600;23.806;2022-07-23T07:44:38;95512.25;;;26.52;47.78
20003;BME280;10162;41.600;23.806;2022-07-23T07:47:04;95498.53;;;26.78;46.85
20003;BME280;10162;41.600;23.806;2022-07-23T07:49:29;95494.06;;;26.20;48.22
20003;BME280;10162;41.600;23.806;2022-07-23T07:51:55;95477.00;;;26.88;47.53
20003;BME280;10162;41.600;23.806;2022-07-23T07:54:21;95488.44;;;27.31;45.64
20003;BME280;10162;41.600;23.806;2022-07-23T07:56:47;95495.19;;;26.67;46.17
20003;BME280;10162;41.600;23.806;2022-07-23T07:59:13;95493.31;;;27.10;45.97
20003;BME280;10162;41.600;23.806;2022-07-23T08:01:40;95487.50;;;27.03;46.04
20003;BME280;10162;41.600;23.806;2022-07-23T08:04:09;95489.53;;;27.67;45.55
20003;BME280;10162;41.600;23.806;2022-07-23T08:06:35;95476.66;;;27.50;44.67
20003;BME280;10162;41.600;23.806;2022-07-23T08:09:00;95476.03;;;27.86;44.51
20003;BME280;10162;41.600;23.806;2022-07-23T08:11:26;95466.31;;;28.04;44.30
20003;BME280;10162;41.600;23.806;2022-07-23T08:14:24;95480.66;;;28.59;43.51
20003;BME280;10162;41.600;23.806;2022-07-23T08:16:50;95467.66;;;28.06;42.60
20003;BME280;10162;41.600;23.806;2022-07-23T08:19:16;95463.13;;;28.34;43.07
20003;BME280;10162;41.600;23.806;2022-07-23T08:21:42;95463.19;;;28.43;41.86
20003;BME280;10162;41.600;23.806;2022-07-23T08:24:07;95463.81;;;28.40;43.84
20003;BME280;10162;41.600;23.806;2022-07-23T08:26:33;95454.63;;;28.54;42.67
20003;BME280;10162;41.600;23.806;2022-07-23T08:28:59;95449.53;;;28.94;42.44
20003;BME280;10162;41.600;23.806;2022-07-23T08:31:26;95445.31;;;29.15;40.42
20003;BME280;10162;41.600;23.806;2022-07-23T08:36:44;95452.28;;;29.16;39.53
20003;BME280;10162;41.600;23.806;2022-07-23T08:39:09;95439.00;;;29.33;40.75
20003;BME280;10162;41.600;23.806;2022-07-23T08:41:35;95438.06;;;29.02;40.18
20003;BME280;10162;41.600;23.806;2022-07-23T08:44:11;95441.88;;;29.23;40.45
20003;BME280;10162;41.600;23.806;2022-07-23T08:46:39;95436.72;;;29.71;40.37
20003;BME280;10162;41.600;23.806;2022-07-23T08:49:06;95441.31;;;29.48;40.27
20003;BME280;10162;41.600;23.806;2022-07-23T08:51:33;95432.91;;;29.94;39.81
20003;BME280;10162;41.600;23.806;2022-07-23T08:56:50;95430.84;;;30.31;38.86
20003;BME280;10162;41.600;23.806;2022-07-23T08:59:16;95424.91;;;30.12;38.73
20003;BME280;10162;41.600;23.806;2022-07-23T09:01:42;95433.59;;;30.09;38.83
20003;BME280;10162;41.600;23.806;2022-07-23T09:04:13;95425.78;;;30.38;37.18
20003;BME280;10162;41.600;23.806;2022-07-23T09:06:39;95426.44;;;30.35;36.34
20003;BME280;10162;41.600;23.806;2022-07-23T09:09:31;95423.16;;;30.55;35.26
20003;BME280;10162;41.600;23.806;2022-07-23T09:12:03;95429.75;;;30.80;37.21
20003;BME280;10162;41.600;23.806;2022-07-23T09:17:45;95412.94;;;30.92;36.62
20003;BME280;10162;41.600;23.806;2022-07-23T09:20:13;95411.47;;;30.77;36.63
20003;BME280;10162;41.600;23.806;2022-07-23T09:25:36;95418.81;;;31.02;35.12
20003;BME280;10162;41.600;23.806;2022-07-23T09:28:02;95404.22;;;31.12;34.44
20003;BME280;10162;41.600;23.806;2022-07-23T09:30:32;95402.28;;;30.95;33.70
20003;BME280;10162;41.600;23.806;2022-07-23T09:36:04;95404.84;;;31.61;34.68
20003;BME280;10162;41.600;23.806;2022-07-23T09:38:30;95388.94;;;31.16;33.63
20003;BME280;10162;41.600;23.806;2022-07-23T09:41:25;95397.41;;;31.14;35.02
20003;BME280;10162;41.600;23.806;2022-07-23T09:47:46;95381.41;;;31.73;35.69
20003;BME280;10162;41.600;23.806;2022-07-23T09:50:12;95369.13;;;31.93;37.01
20003;BME280;10162;41.600;23.806;2022-07-23T09:56:27;95372.03;;;32.26;35.59
20003;BME280;10162;41.600;23.806;2022-07-23T09:58:54;95377.00;;;32.24;34.75
20003;BME280;10162;41.600;23.806;2022-07-23T10:01:31;95382.06;;;32.55;34.41
20003;BME280;10162;41.600;23.806;2022-07-23T10:08:19;95373.91;;;32.34;36.51
20003;BME280;10162;41.600;23.806;2022-07-23T10:11:04;95349.78;;;32.20;37.43
20003;BME280;10162;41.600;23.806;2022-07-23T10:14:08;95345.19;;;32.71;36.10
20003;BME280;10162;41.600;23.806;2022-07-23T10:16:51;95336.16;;;32.67;36.71
20003;BME280;10162;41.600;23.806;2022-07-23T10:19:17;95336.75;;;32.93;35.32
20003;BME280;10162;41.600;23.806;2022-07-23T10:21:49;95352.56;;;32.62;37.30
20003;BME280;10162;41.600;23.806;2022-07-23T10:40:22;95320.94;;;33.37;36.96
20003;BME280;10162;41.600;23.806;2022-07-23T10:46:38;95320.63;;;33.62;34.89
20003;BME280;10162;41.600;23.806;2022-07-23T10:49:27;95289.00;;;33.21;34.56
20003;BME280;10162;41.600;23.806;2022-07-23T10:52:15;95314.34;;;33.71;35.25
20003;BME280;10162;41.600;23.806;2022-07-23T10:54:52;95285.44;;;34.11;32.30
20003;BME280;10162;41.600;23.806;2022-07-23T10:57:25;95291.31;;;33.77;33.00
20003;BME280;10162;41.600;23.806;2022-07-23T11:02:29;95290.53;;;33.76;33.86
20003;BME280;10162;41.600;23.806;2022-07-23T11:05:00;95294.25;;;34.08;32.47
20003;BME280;10162;41.600;23.806;2022-07-23T11:07:26;95272.50;;;33.59;34.11
20003;BME280;10162;41.600;23.806;2022-07-23T11:09:53;95281.38;;;33.93;33.29
20003;BME280;10162;41.600;23.806;2022-07-23T11:20:23;95272.19;;;34.86;32.01
20003;BME280;10162;41.600;23.806;2022-07-23T11:23:17;95282.34;;;35.29;30.61
20003;BME280;10162;41.600;23.806;2022-07-23T11:25:42;95255.25;;;35.05;30.33
20003;BME280;10162;41.600;23.806;2022-07-23T11:28:17;95259.03;;;35.16;30.99
20003;BME280;10162;41.600;23.806;2022-07-23T11:30:47;95254.72;;;34.99;30.95
20003;BME280;10162;41.600;23.806;2022-07-23T11:33:19;95247.75;;;34.86;31.37
20003;BME280;10162;41.600;23.806;2022-07-23T11:35:49;95259.56;;;35.06;30.94
20003;BME280;10162;41.600;23.806;2022-07-23T11:40:43;95236.94;;;35.02;29.00
20003;BME280;10162;41.600;23.806;2022-07-23T11:47:02;95244.56;;;35.12;30.94
20003;BME280;10162;41.600;23.806;2022-07-23T11:49:29;95247.00;;;35.45;29.84
20003;BME280;10162;41.600;23.806;2022-07-23T11:54:35;95254.22;;;35.84;28.50
20003;BME280;10162;41.600;23.806;2022-07-23T11:57:02;95234.28;;;35.96;26.82
20003;BME280;10162;41.600;23.806;2022-07-23T11:59:34;95226.47;;;35.94;27.01
20003;BME280;10162;41.600;23.806;2022-07-23T12:02:04;95226.63;;;36.52;25.17
20003;BME280;10162;41.600;23.806;2022-07-23T12:04:45;95224.81;;;35.90;24.68
20003;BME280;10162;41.600;23.806;2022-07-23T12:07:27;95233.69;;;35.40;25.15
20003;BME280;10162;41.600;23.806;2022-07-23T12:09:54;95227.19;;;35.60;24.85
20003;BME280;10162;41.600;23.806;2022-07-23T12:12:21;95209.56;;;35.38;27.45
20003;BME280;10162;41.600;23.806;2022-07-23T12:14:55;95223.00;;;35.78;24.30
20003;BME280;10162;41.600;23.806;2022-07-23T12:17:30;95226.44;;;36.26;24.22
20003;BME280;10162;41.600;23.806;2022-07-23T12:20:00;95200.13;;;36.68;26.02
20003;BME280;10162;41.600;23.806;2022-07-23T12:26:14;95201.22;;;35.94;26.53
20003;BME280;10162;41.600;23.806;2022-07-23T12:28:39;95187.03;;;36.58;26.58
20003;BME280;10162;41.600;23.806;2022-07-23T12:31:07;95197.09;;;36.54;25.00
20003;BME280;10162;41.600;23.806;2022-07-23T12:37:30;95204.13;;;36.94;24.77
20003;BME280;10162;41.600;23.806;2022-07-23T12:39:56;95199.03;;;37.11;23.79
20003;BME280;10162;41.600;23.806;2022-07-23T12:42:24;95196.00;;;37.16;23.83
20003;BME280;10162;41.600;23.806;2022-07-23T12:45:22;95196.00;;;37.16;24.51
20003;BME280;10162;41.600;23.806;2022-07-23T12:48:03;95190.06;;;37.11;24.01
20003;BME280;10162;41.600;23.806;2022-07-23T12:50:41;95208.72;;;37.54;24.98
20003;BME280;10162;41.600;23.806;2022-07-23T12:56:55;95194.25;;;37.08;24.78
20003;BME280;10162;41.600;23.806;2022-07-23T12:59:21;95183.50;;;37.15;23.90
20003;BME280;10162;41.600;23.806;2022-07-23T13:01:57;95179.66;;;37.88;23.40
20003;BME280;10162;41.600;23.806;2022-07-23T13:04:55;95199.28;;;37.71;24.07
20003;BME280;10162;41.600;23.806;2022-07-23T13:07:21;95182.09;;;37.93;23.76
20003;BME280;10162;41.600;23.806;2022-07-23T13:09:48;95179.25;;;36.95;24.38
20003;BME280;10162;41.600;23.806;2022-07-23T13:12:13;95184.28;;;37.84;23.36
20003;BME280;10162;41.600;23.806;2022-07-23T13:18:02;95184.09;;;35.78;24.99
20003;BME280;10162;41.600;23.806;2022-07-23T13:20:28;95182.72;;;35.52;25.45
20003;BME280;10162;41.600;23.806;2022-07-23T13:22:57;95177.16;;;36.31;24.39
20003;BME280;10162;41.600;23.806;2022-07-23T13:25:22;95193.09;;;37.74;23.87
20003;BME280;10162;41.600;23.806;2022-07-23T13:27:48;95157.94;;;36.24;24.13
20003;BME280;10162;41.600;23.806;2022-07-23T13:30:17;95162.28;;;37.74;22.44
20003;BME280;10162;41.600;23.806;2022-07-23T13:36:33;95191.47;;;38.49;22.16
20003;BME280;10162;41.600;23.806;2022-07-23T13:38:59;95158.59;;;37.40;21.88
20003;BME280;10162;41.600;23.806;2022-07-23T13:41:25;95181.19;;;37.86;21.88
20003;BME280;10162;41.600;23.806;2022-07-23T13:47:38;95161.44;;;37.96;22.20
20003;BME280;10162;41.600;23.806;2022-07-23T13:50:04;95172.09;;;38.94;19.35
20003;BME280;10162;41.600;23.806;2022-07-23T13:56:18;95174.81;;;38.31;19.45
20003;BME280;10162;41.600;23.806;2022-07-23T13:58:44;95161.81;;;37.94;19.63
20003;BME280;10162;41.600;23.806;2022-07-23T14:01:09;95153.16;;;37.89;19.93
20003;BME280;10162;41.600;23.806;2022-07-23T14:07:22;95184.25;;;39.37;20.46
20003;BME280;10162;41.600;23.806;2022-07-23T14:09:47;95174.31;;;38.85;21.53
20003;BME280;10162;41.600;23.806;2022-07-23T14:12:13;95155.41;;;37.57;23.48
20003;BME280;10162;41.600;23.806;2022-07-23T14:18:26;95175.94;;;35.78;23.79
20003;BME280;10162;41.600;23.806;2022-07-23T14:20:52;95177.94;;;35.96;24.32
20003;BME280;10162;41.600;23.806;2022-07-23T14:27:05;95163.31;;;35.07;24.24
20003;BME280;10162;41.600;23.806;2022-07-23T14:29:31;95169.31;;;35.28;24.84
20003;BME280;10162;41.600;23.806;2022-07-23T14:31:59;95169.28;;;36.45;23.62
20003;BME280;10162;41.600;23.806;2022-07-23T14:38:13;95156.88;;;35.93;24.04
20003;BME280;10162;41.600;23.806;2022-07-23T14:40:38;95171.50;;;36.39;23.04
20003;BME280;10162;41.600;23.806;2022-07-23T14:46:51;95162.63;;;37.23;23.26
20003;BME280;10162;41.600;23.806;2022-07-23T14:49:18;95172.09;;;37.78;22.96
20003;BME280;10162;41.600;23.806;2022-07-23T14:51:43;95179.13;;;38.32;22.16
20003;BME280;10162;41.600;23.806;2022-07-23T14:57:57;95186.06;;;37.73;21.59
20003;BME280;10162;41.600;23.806;2022-07-23T15:00:23;95166.63;;;37.78;22.53
20003;BME280;10162;41.600;23.806;2022-07-23T15:06:36;95174.84;;;36.52;23.16
20003;BME280;10162;41.600;23.806;2022-07-23T15:09:02;95158.47;;;36.49;23.30
20003;BME280;10162;41.600;23.806;2022-07-23T15:11:28;95161.63;;;36.70;23.51
20003;BME280;10162;41.600;23.806;2022-07-23T15:17:44;95163.91;;;37.29;21.76
20003;BME280;10162;41.600;23.806;2022-07-23T15:20:10;95159.72;;;37.12;24.47
20003;BME280;10162;41.600;23.806;2022-07-23T15:26:23;95145.44;;;35.53;31.42
20003;BME280;10162;41.600;23.806;2022-07-23T15:28:48;95143.38;;;33.55;35.67
20003;BME280;10162;41.600;23.806;2022-07-23T15:31:14;95139.88;;;34.31;33.65
20003;BME280;10162;41.600;23.806;2022-07-23T15:37:26;95136.94;;;31.83;39.10
20003;BME280;10162;41.600;23.806;2022-07-23T15:39:52;95128.88;;;31.74;38.23
20003;BME280;10162;41.600;23.806;2022-07-23T15:42:18;95128.16;;;31.56;40.40
20003;BME280;10162;41.600;23.806;2022-07-23T15:48:31;95152.50;;;31.65;42.41
20003;BME280;10162;41.600;23.806;2022-07-23T15:50:59;95132.00;;;31.26;43.78
20003;BME280;10162;41.600;23.806;2022-07-23T15:57:18;95137.94;;;31.11;43.75
20003;BME280;10162;41.600;23.806;2022-07-23T15:59:43;95138.63;;;30.91;46.44
20003;BME280;10162;41.600;23.806;2022-07-23T16:02:09;95145.03;;;30.60;45.88